Terminal Aerodrome Forecast
Issued by NWS

Home | Current Version | Previous Version | Text Only | Print | Product List | Glossary On
Versions: 1 2 3 4 5 6 7 8 9 10 11 12
000
FTUS45 KRIW 171700
TAFCOD
TAF
KCOD 171720Z 1718/1818 23009KT P6SM SCT120
     FM172100 05007KT P6SM VCSH SCT060 BKN110
     FM180230 VRB06KT P6SM SCT110
     FM180500 20006KT P6SM SCT120
      AMD LTD TO CLD VIS AND WIND=

USA.gov is the U.S. government's official web portal to all federal, state and local government web resources and services.